Time;durP1;ratioP1;P1;durP2;ratioP2;P2;SDS_P1;SDS_P2;PMS_P1;PMS_P2;Temp;Humidity;BMP_temperature;BMP_pressure;BME280_temperature;BME280_humidity;BME280_pressure;Samples;Min_cycle;Max_cycle;Signal;HPM_P1;HPM_P2
2022/05/14 00:01:39;;;;;;;23.38;5.60;;;13.10;99.90;;;;;;5023091;28;20390;-35
2022/05/14 00:04:07;;;;;;;17.02;5.53;;;13.10;99.90;;;;;;5026409;28;20060;-35
2022/05/14 00:06:32;;;;;;;27.88;6.05;;;13.10;99.90;;;;;;5009326;28;20523;-35
2022/05/14 00:09:01;;;;;;;21.10;6.03;;;13.00;99.90;;;;;;5021159;28;20054;-35
2022/05/14 00:14:11;;;;;;;24.13;5.90;;;13.00;99.90;;;;;;5027142;28;20722;-35
2022/05/14 00:16:38;;;;;;;27.65;5.85;;;13.00;99.90;;;;;;5012194;28;20046;-35
2022/05/14 00:19:06;;;;;;;21.23;5.95;;;13.00;99.90;;;;;;5025094;28;20045;-35
2022/05/14 00:21:34;;;;;;;23.92;6.40;;;13.00;99.90;;;;;;5019819;28;20046;-40
2022/05/14 00:24:00;;;;;;;22.52;6.07;;;12.90;99.90;;;;;;5025852;28;20096;-35
2022/05/14 00:26:26;;;;;;;26.23;6.22;;;12.90;99.90;;;;;;5012694;28;20951;-35
2022/05/14 00:28:52;;;;;;;26.33;6.68;;;12.90;99.90;;;;;;5018237;28;20053;-35
2022/05/14 00:31:18;;;;;;;22.73;6.60;;;12.90;99.90;;;;;;5018455;28;20088;-35
2022/05/14 00:33:45;;;;;;;20.20;6.07;;;12.80;99.90;;;;;;5025981;28;20077;-35
2022/05/14 00:36:14;;;;;;;21.48;6.35;;;12.80;99.90;;;;;;5017280;28;20049;-36
2022/05/14 00:38:40;;;;;;;23.80;6.65;;;12.80;99.90;;;;;;5012011;28;20903;-35
2022/05/14 00:41:07;;;;;;;25.17;6.78;;;12.80;99.90;;;;;;5024723;28;20080;-35
2022/05/14 00:43:45;;;;;;;25.27;6.38;;;12.80;99.90;;;;;;5025307;28;20529;-35
2022/05/14 00:46:21;;;;;;;24.58;6.90;;;12.80;99.90;;;;;;5018361;28;20053;-36
2022/05/14 00:48:49;;;;;;;28.80;6.95;;;12.80;99.90;;;;;;5020473;28;20485;-35
2022/05/14 00:51:19;;;;;;;20.88;6.43;;;12.80;99.90;;;;;;5027660;28;20045;-35
2022/05/14 00:53:51;;;;;;;21.33;6.70;;;12.80;99.90;;;;;;5005426;28;20409;-36
2022/05/14 00:56:21;;;;;;;32.65;7.35;;;12.80;99.90;;;;;;4987472;28;20069;-36
2022/05/14 00:58:58;;;;;;;25.33;7.13;;;12.70;99.90;;;;;;5013902;28;20492;-35
2022/05/14 01:01:24;;;;;;;29.05;6.82;;;12.70;99.90;;;;;;5025382;28;20072;-35
2022/05/14 01:03:50;;;;;;;27.40;6.93;;;12.70;99.90;;;;;;5020189;28;20041;-35
2022/05/14 01:06:19;;;;;;;23.30;6.55;;;12.80;99.90;;;;;;5017143;28;20056;-36
2022/05/14 01:08:47;;;;;;;23.13;7.85;;;12.70;99.90;;;;;;5018021;28;20049;-35
2022/05/14 01:11:15;;;;;;;27.77;7.65;;;12.70;99.90;;;;;;5023636;28;20299;-35
2022/05/14 01:13:41;;;;;;;29.67;7.82;;;12.70;99.90;;;;;;5020841;28;20160;-35
2022/05/14 01:16:07;;;;;;;28.17;7.43;;;12.70;99.90;;;;;;5019549;28;20149;-36
2022/05/14 01:18:35;;;;;;;33.10;8.30;;;12.70;99.90;;;;;;5015223;28;20477;-36
2022/05/14 01:21:05;;;;;;;30.02;7.88;;;12.80;99.90;;;;;;5025227;28;20046;-35
2022/05/14 01:26:43;;;;;;;25.63;7.60;;;12.70;99.90;;;;;;5006819;28;20091;-36
2022/05/14 01:29:29;;;;;;;25.15;7.20;;;12.70;99.90;;;;;;5024977;28;20042;-36
2022/05/14 01:31:56;;;;;;;25.98;7.55;;;12.70;99.90;;;;;;5025992;28;20128;-35
2022/05/14 01:34:35;;;;;;;32.30;8.27;;;12.70;99.90;;;;;;5023575;28;20037;-35
2022/05/14 01:37:01;;;;;;;40.88;8.30;;;12.80;99.90;;;;;;5006515;28;20043;-35
2022/05/14 01:39:27;;;;;;;31.75;8.57;;;12.70;99.90;;;;;;5025088;28;20104;-35
2022/05/14 01:41:53;;;;;;;37.25;8.20;;;12.70;99.90;;;;;;5024819;28;20399;-35
2022/05/14 01:44:19;;;;;;;26.15;8.02;;;12.70;99.90;;;;;;5023743;28;20115;-35
2022/05/14 01:46:45;;;;;;;32.55;8.48;;;12.70;99.90;;;;;;5004253;28;20045;-36
2022/05/14 01:49:11;;;;;;;35.55;8.48;;;12.70;99.90;;;;;;5024768;28;20041;-35
2022/05/14 01:51:37;;;;;;;28.35;8.30;;;12.70;99.90;;;;;;5024193;28;20042;-35
2022/05/14 01:54:03;;;;;;;37.85;9.95;;;12.60;99.90;;;;;;5024009;28;20045;-35
2022/05/14 01:56:29;;;;;;;26.63;8.25;;;12.60;99.90;;;;;;5008165;28;20055;-35
2022/05/14 01:58:55;;;;;;;38.15;8.88;;;12.60;99.90;;;;;;5021178;28;20136;-35
2022/05/14 02:01:27;;;;;;;33.03;8.15;;;12.60;99.90;;;;;;5023344;28;20049;-35
2022/05/14 02:03:59;;;;;;;28.55;8.48;;;12.60;99.90;;;;;;5021831;28;20045;-35
2022/05/14 02:06:26;;;;;;;35.10;9.00;;;12.60;99.90;;;;;;5013320;28;20045;-36
2022/05/14 02:08:52;;;;;;;29.92;8.55;;;12.50;99.90;;;;;;5016922;28;20072;-35
2022/05/14 02:11:18;;;;;;;33.75;9.23;;;12.60;99.90;;;;;;5007094;28;20092;-35
2022/05/14 02:13:47;;;;;;;39.65;8.90;;;12.50;99.90;;;;;;5026113;28;20045;-35
2022/05/14 02:16:12;;;;;;;37.22;8.85;;;12.50;99.90;;;;;;5013645;28;20084;-36
2022/05/14 02:18:38;;;;;;;33.42;8.82;;;12.50;99.90;;;;;;5017338;28;20496;-35
2022/05/14 02:21:05;;;;;;;36.90;9.52;;;12.50;99.90;;;;;;5024980;28;20041;-35
2022/05/14 02:23:32;;;;;;;35.05;7.85;;;12.30;99.90;;;;;;5023601;28;20511;-35
2022/05/14 02:25:58;;;;;;;27.92;8.45;;;12.30;99.90;;;;;;5004586;28;20072;-35
2022/05/14 02:28:24;;;;;;;37.78;9.60;;;12.30;99.90;;;;;;5007844;28;20053;-35
2022/05/14 02:30:50;;;;;;;34.60;9.25;;;12.20;99.90;;;;;;5019038;28;20057;-35
2022/05/14 02:33:16;;;;;;;35.17;9.38;;;12.20;99.90;;;;;;5006821;28;20034;-35
2022/05/14 02:35:43;;;;;;;33.90;10.18;;;12.10;99.90;;;;;;5026135;28;20045;-35
2022/05/14 02:38:09;;;;;;;43.92;10.90;;;12.10;99.90;;;;;;5001528;28;20060;-35
2022/05/14 02:40:35;;;;;;;40.92;9.88;;;12.10;99.90;;;;;;5017806;28;20049;-35
2022/05/14 02:43:01;;;;;;;36.72;9.02;;;12.10;99.90;;;;;;5024269;28;20655;-35
2022/05/14 02:45:27;;;;;;;38.45;9.38;;;12.10;99.90;;;;;;5018282;28;20050;-36
2022/05/14 02:47:53;;;;;;;32.88;9.68;;;12.10;99.90;;;;;;5008886;28;20461;-35
2022/05/14 02:50:19;;;;;;;34.33;9.57;;;12.10;99.90;;;;;;5020270;28;20045;-35
2022/05/14 02:52:45;;;;;;;38.78;10.25;;;12.10;99.90;;;;;;5021339;28;20095;-35
2022/05/14 02:55:11;;;;;;;32.72;9.48;;;12.10;99.90;;;;;;5021706;28;20053;-35
2022/05/14 02:57:37;;;;;;;30.48;8.88;;;12.10;99.90;;;;;;5005230;28;20046;-35
2022/05/14 03:00:09;;;;;;;36.40;10.25;;;11.90;99.90;;;;;;5023420;28;20042;-35
2022/05/14 03:02:36;;;;;;;41.83;10.30;;;12.00;99.90;;;;;;5017135;28;20041;-35
2022/05/14 03:05:04;;;;;;;39.80;10.48;;;12.00;99.90;;;;;;5021552;28;20473;-35
2022/05/14 03:07:30;;;;;;;37.83;10.77;;;11.90;99.90;;;;;;5010203;28;20448;-37
2022/05/14 03:09:55;;;;;;;36.72;10.23;;;11.90;99.90;;;;;;5021111;28;20052;-35
2022/05/14 03:12:22;;;;;;;39.15;10.05;;;11.80;99.90;;;;;;5019447;28;20045;-36
2022/05/14 03:14:48;;;;;;;37.05;10.43;;;11.80;99.90;;;;;;5025133;28;20095;-35
2022/05/14 03:17:14;;;;;;;40.55;10.48;;;11.80;99.90;;;;;;5007705;28;20054;-35
2022/05/14 03:19:40;;;;;;;36.83;10.45;;;11.80;99.90;;;;;;5023904;28;20124;-35
2022/05/14 03:22:06;;;;;;;38.67;10.15;;;11.80;99.90;;;;;;5022303;28;20242;-35
2022/05/14 03:24:32;;;;;;;33.13;9.32;;;11.70;99.90;;;;;;5020022;28;20042;-35
2022/05/14 03:26:59;;;;;;;39.90;11.30;;;11.80;99.90;;;;;;5007854;28;20524;-35
2022/05/14 03:29:25;;;;;;;33.90;9.95;;;11.80;99.90;;;;;;5021798;28;20106;-35
2022/05/14 03:31:51;;;;;;;34.38;9.77;;;11.70;99.90;;;;;;5025857;28;20046;-35
2022/05/14 03:34:17;;;;;;;36.03;10.45;;;11.70;99.90;;;;;;5025104;28;20077;-35
2022/05/14 03:36:43;;;;;;;34.75;10.05;;;11.60;99.90;;;;;;5014068;28;20535;-35
2022/05/14 03:39:09;;;;;;;46.38;10.70;;;11.60;99.90;;;;;;5026518;28;20092;-35
2022/05/14 03:41:35;;;;;;;39.28;10.02;;;11.60;99.90;;;;;;5027552;28;20102;-35
2022/05/14 03:44:01;;;;;;;45.13;11.20;;;11.60;99.90;;;;;;5026285;28;20048;-35
2022/05/14 03:46:27;;;;;;;43.22;10.85;;;11.50;99.90;;;;;;5012513;28;20037;-35
2022/05/14 03:48:52;;;;;;;46.40;10.55;;;11.50;99.90;;;;;;5023266;28;20501;-35
2022/05/14 03:51:18;;;;;;;34.13;10.05;;;11.50;99.90;;;;;;5028375;28;20125;-35
2022/05/14 03:53:44;;;;;;;40.45;11.35;;;11.60;99.90;;;;;;5025840;28;20042;-35
2022/05/14 03:56:11;;;;;;;45.70;10.98;;;11.40;99.90;;;;;;5020424;28;20100;-36
2022/05/14 03:58:37;;;;;;;35.45;10.23;;;11.40;99.90;;;;;;5018764;28;20097;-35
2022/05/14 04:01:04;;;;;;;39.33;11.20;;;11.40;99.90;;;;;;5027124;28;20049;-35
2022/05/14 04:03:31;;;;;;;39.92;10.13;;;11.40;99.90;;;;;;5024407;28;20038;-35
2022/05/14 04:05:56;;;;;;;46.92;15.05;;;11.40;99.90;;;;;;5024647;28;20657;-35
2022/05/14 04:08:22;;;;;;;49.05;12.57;;;11.40;99.90;;;;;;5009369;28;20045;-35
2022/05/14 04:10:48;;;;;;;40.80;10.35;;;11.30;99.90;;;;;;5027213;28;20041;-35
2022/05/14 04:13:13;;;;;;;40.13;10.80;;;11.50;99.90;;;;;;5024794;28;20041;-35
2022/05/14 04:15:39;;;;;;;38.88;10.32;;;11.30;99.90;;;;;;5026711;28;20067;-35
2022/05/14 04:18:05;;;;;;;43.35;9.98;;;11.30;99.90;;;;;;5000737;28;20073;-35
2022/05/14 04:20:31;;;;;;;40.47;11.45;;;11.20;99.90;;;;;;5022854;28;20050;-35
2022/05/14 04:22:57;;;;;;;41.08;10.35;;;11.20;99.90;;;;;;5023638;28;20100;-35
2022/05/14 04:25:24;;;;;;;40.85;10.63;;;11.20;99.90;;;;;;5026226;28;20053;-35
2022/05/14 04:27:50;;;;;;;44.55;11.60;;;11.20;99.90;;;;;;5005265;28;20042;-35
2022/05/14 04:30:16;;;;;;;36.17;10.77;;;11.20;99.90;;;;;;5020657;28;20092;-35
2022/05/14 04:32:43;;;;;;;37.58;10.50;;;11.20;99.90;;;;;;5023657;28;20045;-35
2022/05/14 04:35:11;;;;;;;33.53;10.02;;;11.10;99.90;;;;;;5026589;28;20041;-35
2022/05/14 04:37:37;;;;;;;34.70;10.52;;;11.00;99.90;;;;;;5010587;28;20129;-35
2022/05/14 04:40:05;;;;;;;49.17;12.02;;;11.10;99.90;;;;;;5016068;28;20079;-35
2022/05/14 04:42:31;;;;;;;34.30;9.57;;;11.10;99.90;;;;;;5020884;28;20080;-35
2022/05/14 04:44:57;;;;;;;35.10;10.40;;;11.10;99.90;;;;;;5028126;28;20050;-35
2022/05/14 04:47:22;;;;;;;37.25;10.40;;;11.10;99.90;;;;;;4996494;28;20116;-35
2022/05/14 04:49:49;;;;;;;39.47;10.18;;;11.10;99.90;;;;;;5018525;28;20056;-35
2022/05/14 04:52:15;;;;;;;34.42;9.70;;;11.10;99.90;;;;;;5024481;28;20041;-35
2022/05/14 04:54:41;;;;;;;34.58;10.43;;;11.20;99.90;;;;;;5027744;28;20052;-35
2022/05/14 04:57:07;;;;;;;33.88;9.90;;;11.10;99.90;;;;;;5007298;28;20649;-35
2022/05/14 04:59:33;;;;;;;40.40;11.07;;;11.10;99.90;;;;;;5025848;28;20076;-35
2022/05/14 05:04:45;;;;;;;34.40;10.40;;;11.30;99.90;;;;;;5023345;28;20048;-35
2022/05/14 05:07:11;;;;;;;41.10;11.30;;;11.20;99.90;;;;;;5010345;28;20148;-35
2022/05/14 05:09:37;;;;;;;42.35;11.98;;;11.30;99.90;;;;;;5026282;28;20551;-35
2022/05/14 05:12:04;;;;;;;33.85;10.88;;;11.30;99.90;;;;;;5015273;28;20137;-35
2022/05/14 05:14:29;;;;;;;35.45;10.70;;;11.30;99.90;;;;;;5026513;28;20052;-35
2022/05/14 05:16:55;;;;;;;46.45;11.27;;;11.40;99.90;;;;;;5012592;28;20042;-35
2022/05/14 05:19:21;;;;;;;40.40;11.35;;;11.50;99.90;;;;;;5023726;28;20136;-35
2022/05/14 05:21:48;;;;;;;33.05;10.85;;;11.60;99.90;;;;;;5024864;28;20054;-35
2022/05/14 05:24:14;;;;;;;42.38;10.52;;;11.60;99.90;;;;;;5023866;28;20428;-35
2022/05/14 05:26:39;;;;;;;40.63;10.43;;;11.70;99.90;;;;;;5010366;28;20046;-35
2022/05/14 05:29:06;;;;;;;37.38;10.73;;;11.80;99.90;;;;;;5020355;28;20085;-35
2022/05/14 05:31:33;;;;;;;39.08;10.35;;;11.80;99.90;;;;;;5026493;28;20046;-35
2022/05/14 05:34:00;;;;;;;34.65;10.48;;;11.90;99.90;;;;;;5018314;28;20053;-35
2022/05/14 05:36:25;;;;;;;40.30;10.07;;;12.00;99.90;;;;;;5012969;28;20077;-35
2022/05/14 05:38:51;;;;;;;46.65;10.98;;;12.00;99.90;;;;;;5019962;28;20175;-35
2022/05/14 05:41:18;;;;;;;34.40;10.43;;;12.10;99.90;;;;;;5025751;28;20089;-35
2022/05/14 05:43:44;;;;;;;33.72;9.48;;;12.20;99.90;;;;;;5021979;28;20053;-35
2022/05/14 05:46:14;;;;;;;44.03;10.27;;;12.20;99.90;;;;;;5017798;28;20437;-35
2022/05/14 05:48:40;;;;;;;35.90;10.65;;;12.20;99.90;;;;;;5016274;28;20108;-35
2022/05/14 05:51:06;;;;;;;36.08;9.70;;;12.40;99.90;;;;;;5026242;28;20467;-36
2022/05/14 05:59:03;;;;;;;39.15;9.63;;;12.70;99.90;;;;;;5023049;28;20412;-35
2022/05/14 06:01:28;;;;;;;35.00;9.00;;;12.80;99.90;;;;;;5026490;28;20053;-36
2022/05/14 06:03:54;;;;;;;35.33;9.25;;;12.90;99.90;;;;;;5017097;28;20054;-36
2022/05/14 06:06:20;;;;;;;38.97;9.73;;;13.00;99.90;;;;;;5004181;28;20041;-36
2022/05/14 06:08:49;;;;;;;27.98;8.38;;;13.10;99.90;;;;;;5007984;28;20133;-35
2022/05/14 06:11:16;;;;;;;31.35;8.80;;;13.20;99.90;;;;;;5014534;28;20053;-36
2022/05/14 06:13:43;;;;;;;33.92;8.13;;;13.30;99.90;;;;;;5014432;28;20041;-36
2022/05/14 06:16:13;;;;;;;31.08;8.88;;;13.40;99.90;;;;;;5004208;28;20101;-36
2022/05/14 06:18:40;;;;;;;23.63;7.23;;;13.50;99.90;;;;;;5003273;28;20136;-36
2022/05/14 06:21:06;;;;;;;33.20;7.78;;;13.50;99.90;;;;;;5014144;28;20679;-36
2022/05/14 06:23:32;;;;;;;29.55;6.95;;;13.60;99.90;;;;;;5013930;28;20045;-36
2022/05/14 06:25:59;;;;;;;31.67;7.95;;;13.60;99.90;;;;;;5012238;28;20121;-36
2022/05/14 06:28:24;;;;;;;28.75;7.82;;;13.70;99.90;;;;;;4996252;28;20049;-36
2022/05/14 06:30:51;;;;;;;30.55;7.70;;;13.80;99.90;;;;;;5012012;28;20526;-36
2022/05/14 06:33:20;;;;;;;22.50;7.57;;;13.90;99.90;;;;;;5017029;28;20114;-36
2022/05/14 06:35:46;;;;;;;26.10;6.85;;;14.00;99.90;;;;;;5000912;28;20045;-36
2022/05/14 06:38:14;;;;;;;29.90;7.45;;;14.00;99.90;;;;;;4979718;28;20107;-36
2022/05/14 06:40:40;;;;;;;24.08;6.45;;;14.00;99.90;;;;;;4995187;28;20045;-36
2022/05/14 06:43:06;;;;;;;26.63;6.93;;;14.10;99.90;;;;;;4994637;28;20077;-36
2022/05/14 06:45:32;;;;;;;25.88;6.75;;;14.20;99.90;;;;;;4998117;28;20052;-36
2022/05/14 06:47:58;;;;;;;22.98;6.13;;;14.30;99.90;;;;;;4992519;28;20053;-36
2022/05/14 06:50:26;;;;;;;24.20;6.15;;;14.30;99.90;;;;;;5015734;28;20056;-37
2022/05/14 06:52:57;;;;;;;27.08;6.45;;;14.40;99.90;;;;;;5021415;28;20547;-36
2022/05/14 06:55:25;;;;;;;26.83;6.43;;;14.50;99.90;;;;;;5017319;28;20050;-36
2022/05/14 06:57:52;;;;;;;22.92;6.43;;;14.60;99.90;;;;;;5006321;28;20064;-36
2022/05/14 07:00:19;;;;;;;23.08;6.95;;;14.60;99.90;;;;;;5015824;28;20068;-36
2022/05/14 07:02:46;;;;;;;21.88;5.68;;;14.60;99.90;;;;;;5017527;28;20512;-36
2022/05/14 07:07:57;;;;;;;29.67;6.47;;;14.80;99.90;;;;;;5010618;28;20072;-36
2022/05/14 07:10:22;;;;;;;19.40;6.25;;;14.80;99.90;;;;;;5013038;28;20464;-36
2022/05/14 07:12:49;;;;;;;20.98;5.93;;;14.90;99.90;;;;;;5013679;28;20071;-36
2022/05/14 07:15:15;;;;;;;26.65;6.35;;;14.90;99.90;;;;;;5016957;28;20046;-36
2022/05/14 07:17:41;;;;;;;28.27;6.50;;;15.00;99.90;;;;;;4998100;28;21354;-37
2022/05/14 07:20:08;;;;;;;19.20;5.45;;;15.00;99.90;;;;;;5014622;28;20049;-36
2022/05/14 07:22:34;;;;;;;17.58;5.35;;;15.00;99.90;;;;;;5010882;28;20764;-36
2022/05/14 07:25:00;;;;;;;22.30;5.75;;;15.10;99.90;;;;;;5013188;28;20049;-36
2022/05/14 07:27:25;;;;;;;22.92;5.50;;;15.10;99.90;;;;;;4999590;28;20045;-36
2022/05/14 07:29:51;;;;;;;22.40;5.95;;;15.10;99.90;;;;;;5014262;28;20041;-36
2022/05/14 07:32:19;;;;;;;23.95;5.50;;;15.20;99.90;;;;;;5012886;28;20045;-36
2022/05/14 07:34:45;;;;;;;17.05;5.30;;;15.20;99.90;;;;;;5017023;28;20057;-36
2022/05/14 07:37:26;;;;;;;26.17;6.30;;;15.30;99.90;;;;;;5007735;28;20050;-36
2022/05/14 07:39:57;;;;;;;24.05;6.03;;;15.40;99.90;;;;;;5019757;28;20052;-36
2022/05/14 07:42:37;;;;;;;22.77;5.45;;;15.40;99.90;;;;;;5012509;28;20117;-37
2022/05/14 07:45:05;;;;;;;23.10;5.55;;;15.40;99.90;;;;;;5006182;28;20057;-36
2022/05/14 07:47:32;;;;;;;21.20;5.90;;;15.40;99.90;;;;;;4997192;28;20096;-37
2022/05/14 07:50:00;;;;;;;20.60;5.40;;;15.40;99.90;;;;;;5008186;28;20078;-36
2022/05/14 07:52:27;;;;;;;16.23;5.13;;;15.50;99.90;;;;;;5009168;28;20042;-36
2022/05/14 07:54:52;;;;;;;23.77;5.28;;;15.50;99.90;;;;;;5005078;28;20042;-36
2022/05/14 07:57:18;;;;;;;16.00;4.97;;;15.50;99.90;;;;;;4990939;28;20135;-36
2022/05/14 07:59:45;;;;;;;18.45;5.10;;;15.60;99.90;;;;;;5007393;28;20077;-36
2022/05/14 08:02:24;;;;;;;24.33;5.55;;;15.60;99.90;;;;;;5005084;28;20050;-37
2022/05/14 08:04:50;;;;;;;22.80;5.93;;;15.60;99.90;;;;;;4999129;28;20070;-36
2022/05/14 08:07:16;;;;;;;19.88;5.38;;;15.70;99.90;;;;;;4985346;28;20104;-36
2022/05/14 08:09:41;;;;;;;19.98;5.63;;;15.60;99.90;;;;;;5004334;28;20072;-37
2022/05/14 08:12:07;;;;;;;25.05;5.85;;;15.70;99.90;;;;;;5002468;28;20050;-38
2022/05/14 08:14:36;;;;;;;14.55;4.97;;;15.70;99.90;;;;;;5003603;28;20046;-36
2022/05/14 08:17:01;;;;;;;24.13;5.43;;;15.70;99.90;;;;;;4987140;28;20050;-37
2022/05/14 08:19:27;;;;;;;19.08;5.50;;;15.70;99.90;;;;;;5006395;28;20049;-36
2022/05/14 08:24:38;;;;;;;21.33;5.60;;;15.80;99.90;;;;;;4984986;28;20124;-45
2022/05/14 08:27:09;;;;;;;22.88;5.30;;;15.80;99.90;;;;;;4970787;28;20438;-37
2022/05/14 08:29:35;;;;;;;;;;;15.80;99.90;;;;;;5002883;28;20097;-36
2022/05/14 08:32:03;;;;;;;17.45;4.75;;;15.80;99.90;;;;;;4994460;28;20060;-37
2022/05/14 08:34:29;;;;;;;14.95;4.72;;;15.90;99.90;;;;;;5017184;28;20047;-36
2022/05/14 08:36:56;;;;;;;19.85;5.15;;;15.90;99.90;;;;;;5009033;28;20120;-37
2022/05/14 08:39:22;;;;;;;18.75;4.95;;;16.00;99.90;;;;;;5019941;28;20349;-37
2022/05/14 08:41:50;;;;;;;19.55;5.03;;;16.00;99.90;;;;;;5008872;28;20049;-37
2022/05/14 08:44:21;;;;;;;17.60;5.10;;;16.10;99.90;;;;;;4997921;28;20096;-37
2022/05/14 08:46:53;;;;;;;23.02;5.45;;;16.10;99.90;;;;;;4985481;28;20048;-37
2022/05/14 08:49:28;;;;;;;24.00;5.53;;;16.20;99.90;;;;;;5014802;28;20144;-37
2022/05/14 08:51:56;;;;;;;20.35;5.40;;;16.20;99.90;;;;;;5022945;28;20038;-36
2022/05/14 08:54:22;;;;;;;19.40;4.75;;;16.20;99.90;;;;;;5023551;28;20658;-36
2022/05/14 08:57:17;;;;;;;23.63;5.25;;;16.20;99.90;;;;;;5003743;28;20061;-37
2022/05/14 08:59:55;;;;;;;25.83;6.15;;;16.20;99.90;;;;;;5016344;28;20045;-36
2022/05/14 09:02:34;;;;;;;26.13;5.80;;;16.30;99.90;;;;;;5023331;28;20061;-36
2022/05/14 09:05:01;;;;;;;23.33;5.45;;;16.40;99.90;;;;;;5016930;28;20404;-36
2022/05/14 09:07:27;;;;;;;22.45;5.60;;;16.50;99.90;;;;;;4991036;28;20076;-37
2022/05/14 09:09:55;;;;;;;20.50;5.95;;;16.50;99.90;;;;;;4980626;28;20045;-37
2022/05/14 09:12:31;;;;;;;23.35;6.00;;;16.60;99.90;;;;;;4995478;28;20196;-37
2022/05/14 09:15:10;;;;;;;24.20;5.72;;;16.60;99.90;;;;;;5022316;28;20041;-37
2022/05/14 09:17:36;;;;;;;24.30;5.05;;;16.70;99.90;;;;;;4997295;28;20042;-37
2022/05/14 09:20:02;;;;;;;18.23;5.65;;;16.60;99.90;;;;;;4994184;28;20052;-36
2022/05/14 09:22:33;;;;;;;19.20;5.07;;;16.70;99.90;;;;;;4986631;28;20134;-37
2022/05/14 09:25:02;;;;;;;;;;;16.80;99.90;;;;;;5000829;28;20049;-36
2022/05/14 09:27:44;;;;;;;25.42;5.10;;;16.80;99.90;;;;;;4968943;28;19926;-38
2022/05/14 09:30:21;;;;;;;23.55;5.28;;;16.80;99.90;;;;;;5006851;28;20054;-37
2022/05/14 09:32:47;;;;;;;19.50;5.40;;;16.90;99.90;;;;;;5007692;28;20544;-37
2022/05/14 09:35:28;;;;;;;20.63;5.57;;;16.90;99.90;;;;;;5009339;28;20042;-37
2022/05/14 09:38:18;;;;;;;22.58;5.63;;;16.90;99.90;;;;;;4992229;28;20046;-37
2022/05/14 09:40:45;;;;;;;21.25;5.68;;;17.00;99.90;;;;;;5007826;28;20105;-37
2022/05/14 09:43:26;;;;;;;21.77;6.00;;;17.00;99.90;;;;;;5004432;28;20073;-36
2022/05/14 09:45:57;;;;;;;;;;;17.10;99.90;;;;;;4999500;28;20133;-37
2022/05/14 09:48:35;;;;;;;20.00;5.47;;;17.00;99.90;;;;;;4989953;28;19925;-37
2022/05/14 09:51:04;;;;;;;18.00;5.30;;;17.10;99.90;;;;;;5019193;28;20077;-37
2022/05/14 09:53:32;;;;;;;21.17;5.80;;;17.10;99.90;;;;;;5031422;28;20501;-36
2022/05/14 09:56:17;;;;;;;20.35;5.20;;;17.10;99.90;;;;;;5009522;28;20195;-37
2022/05/14 09:58:53;;;;;;;17.42;4.70;;;17.20;99.90;;;;;;5000788;28;20069;-37
2022/05/14 10:01:44;;;;;;;21.15;5.50;;;17.20;99.90;;;;;;5017031;28;20077;-37
2022/05/14 10:04:18;;;;;;;19.60;5.32;;;17.30;99.90;;;;;;5018880;28;20492;-37
2022/05/14 10:07:10;;;;;;;19.08;5.28;;;17.40;99.90;;;;;;5007702;28;20528;-37
2022/05/14 10:09:42;;;;;;;21.60;5.70;;;17.50;99.90;;;;;;5023912;28;20045;-37
2022/05/14 10:12:45;;;;;;;21.17;5.93;;;17.50;99.90;;;;;;5014037;28;20108;-37
2022/05/14 10:15:23;;;;;;;22.88;5.70;;;17.50;99.90;;;;;;5021696;28;20062;-37
2022/05/14 10:18:03;;;;;;;24.77;6.47;;;17.50;99.90;;;;;;5008584;28;20427;-37
2022/05/14 10:20:57;;;;;;;20.00;5.65;;;17.60;99.90;;;;;;5021520;28;20043;-37
2022/05/14 10:26:53;;;;;;;22.90;6.00;;;17.60;99.90;;;;;;4983023;28;20085;-37
2022/05/14 10:29:54;;;;;;;20.67;5.57;;;17.70;99.90;;;;;;5020403;28;20397;-37
2022/05/14 10:32:21;;;;;;;23.30;5.68;;;17.70;99.90;;;;;;5021510;28;20045;-37
2022/05/14 10:34:46;;;;;;;23.35;5.40;;;17.80;99.90;;;;;;5024426;28;20042;-36
2022/05/14 10:37:27;;;;;;;22.33;5.68;;;17.80;99.90;;;;;;5007384;28;20053;-37
2022/05/14 10:40:07;;;;;;;19.73;5.82;;;17.80;99.90;;;;;;5025254;28;20589;-36
2022/05/14 10:42:53;;;;;;;24.90;5.65;;;17.80;99.90;;;;;;5024532;28;20500;-37
2022/05/14 10:45:26;;;;;;;27.27;6.20;;;17.90;99.90;;;;;;5029230;28;20497;-37
2022/05/14 10:48:04;;;;;;;22.95;5.60;;;18.00;99.90;;;;;;5007045;28;20033;-37
2022/05/14 10:50:29;;;;;;;19.70;5.88;;;18.00;99.90;;;;;;5021853;28;20050;-37
2022/05/14 10:52:57;;;;;;;22.65;5.45;;;18.00;99.90;;;;;;5027869;28;20088;-37
2022/05/14 10:55:35;;;;;;;21.83;6.28;;;18.00;99.90;;;;;;5030182;28;20054;-37
2022/05/14 10:58:07;;;;;;;23.45;5.80;;;18.00;99.90;;;;;;5005111;28;20048;-37
2022/05/14 11:00:43;;;;;;;24.90;6.00;;;18.00;99.90;;;;;;5026615;28;20036;-37
2022/05/14 11:03:24;;;;;;;22.33;6.15;;;18.00;99.90;;;;;;4999556;28;20575;-37
2022/05/14 11:05:52;;;;;;;21.30;6.22;;;18.00;99.90;;;;;;5022552;28;20072;-37
2022/05/14 11:08:42;;;;;;;22.17;5.85;;;17.90;99.90;;;;;;5007211;28;20053;-36
2022/05/14 11:11:13;;;;;;;21.42;5.50;;;18.00;99.90;;;;;;5028438;28;20119;-37
2022/05/14 11:13:40;;;;;;;21.77;5.70;;;18.00;99.90;;;;;;5026292;28;20084;-37
2022/05/14 11:16:13;;;;;;;23.25;6.20;;;18.10;99.90;;;;;;5026667;28;20045;-38
2022/05/14 11:18:50;;;;;;;23.42;5.82;;;18.10;99.90;;;;;;5020385;28;20045;-37
2022/05/14 11:21:18;;;;;;;22.80;6.65;;;18.30;99.90;;;;;;5024535;28;20492;-37
2022/05/14 11:23:58;;;;;;;20.02;6.18;;;18.40;99.90;;;;;;5027796;28;20041;-37
2022/05/14 11:26:25;;;;;;;20.15;5.80;;;18.50;99.90;;;;;;5011871;28;20059;-37
2022/05/14 11:29:15;;;;;;;21.83;6.57;;;18.70;99.90;;;;;;5022576;28;20034;-37
2022/05/14 11:31:51;;;;;;;26.58;6.45;;;18.90;99.90;;;;;;5024155;28;20045;-37
2022/05/14 11:34:23;;;;;;;26.90;6.60;;;19.00;99.90;;;;;;5026629;28;20096;-37
2022/05/14 11:36:52;;;;;;;21.48;6.65;;;19.10;99.90;;;;;;5013281;28;20037;-37
2022/05/14 11:39:25;;;;;;;24.70;6.28;;;19.20;99.90;;;;;;5027096;28;20041;-37
2022/05/14 11:42:07;;;;;;;23.90;6.70;;;19.30;99.90;;;;;;5026965;28;20081;-37
2022/05/14 11:44:38;;;;;;;25.45;5.75;;;19.20;99.90;;;;;;5026605;28;20208;-37
2022/05/14 11:47:17;;;;;;;23.98;6.93;;;19.20;99.90;;;;;;5011331;28;20190;-37
2022/05/14 11:49:45;;;;;;;17.55;6.03;;;19.20;99.90;;;;;;5026312;28;20088;-37
2022/05/14 11:52:33;;;;;;;18.65;5.95;;;19.20;99.90;;;;;;5022166;28;20493;-37
2022/05/14 11:55:10;;;;;;;23.38;6.00;;;19.10;99.90;;;;;;5028789;28;20608;-37
2022/05/14 11:57:44;;;;;;;24.27;6.43;;;19.10;99.90;;;;;;5009028;28;20128;-37
2022/05/14 12:00:15;;;;;;;22.55;5.88;;;19.10;99.90;;;;;;5028277;28;20053;-37
2022/05/14 12:02:48;;;;;;;19.73;5.78;;;19.10;99.90;;;;;;5025918;28;20140;-37
2022/05/14 12:05:28;;;;;;;20.92;5.97;;;19.10;99.90;;;;;;5024210;28;20041;-37
2022/05/14 12:08:20;;;;;;;18.92;5.75;;;19.10;99.90;;;;;;5011750;28;20033;-37
2022/05/14 12:11:09;;;;;;;20.35;6.00;;;19.10;99.90;;;;;;5027651;28;20095;-37
2022/05/14 12:13:56;;;;;;;22.40;6.65;;;19.10;99.90;;;;;;5017153;28;20055;-37
2022/05/14 12:16:51;;;;;;;23.95;6.40;;;19.20;99.90;;;;;;5014881;28;20140;-37
2022/05/14 12:19:21;;;;;;;26.50;6.68;;;19.20;99.90;;;;;;5024757;28;20057;-37
2022/05/14 12:21:51;;;;;;;23.20;6.70;;;19.10;99.90;;;;;;5026692;28;20049;-37
2022/05/14 12:24:30;;;;;;;20.70;6.13;;;19.10;99.90;;;;;;5023747;28;20068;-37
2022/05/14 12:26:56;;;;;;;23.38;6.57;;;19.00;99.90;;;;;;5009508;28;20137;-37
2022/05/14 12:29:28;;;;;;;26.80;6.90;;;19.00;99.90;;;;;;5019263;28;20060;-37
2022/05/14 12:34:56;;;;;;;21.83;6.93;;;19.00;99.90;;;;;;5022113;28;20053;-37
2022/05/14 12:37:26;;;;;;;22.85;6.57;;;19.00;99.90;;;;;;5009000;28;20041;-37
2022/05/14 12:39:56;;;;;;;26.92;7.38;;;19.00;99.90;;;;;;5018969;28;20554;-37
2022/05/14 12:42:38;;;;;;;23.13;6.22;;;19.10;99.90;;;;;;5021915;28;20053;-37
2022/05/14 12:45:05;;;;;;;18.67;6.25;;;19.20;99.90;;;;;;5025715;28;20125;-37
2022/05/14 12:47:34;;;;;;;18.85;5.60;;;19.20;99.90;;;;;;5008822;28;20060;-37
2022/05/14 12:50:01;;;;;;;23.02;6.22;;;19.30;99.90;;;;;;5024168;28;20124;-37
2022/05/14 12:52:33;;;;;;;22.50;6.10;;;19.30;99.90;;;;;;5014114;28;20046;-37
2022/05/14 12:55:09;;;;;;;23.98;6.40;;;19.40;99.90;;;;;;5027472;28;20041;-37
2022/05/14 12:57:37;;;;;;;24.77;6.13;;;19.40;99.90;;;;;;5002311;28;20100;-37
2022/05/14 13:00:07;;;;;;;22.52;6.18;;;19.50;99.90;;;;;;5021570;28;20432;-37
2022/05/14 13:02:46;;;;;;;23.70;6.38;;;19.50;99.90;;;;;;5026963;28;20083;-37
2022/05/14 13:05:39;;;;;;;29.02;6.80;;;19.60;99.90;;;;;;5019787;28;20057;-37
2022/05/14 13:08:18;;;;;;;22.02;6.05;;;19.60;99.90;;;;;;5003887;28;20037;-37
2022/05/14 13:10:54;;;;;;;29.35;7.03;;;19.60;99.90;;;;;;5023473;28;20123;-37
2022/05/14 13:13:30;;;;;;;22.08;6.13;;;19.70;99.90;;;;;;5025311;28;20390;-37
2022/05/14 13:15:56;;;;;;;25.23;6.40;;;19.80;99.90;;;;;;5025764;28;20049;-37